Date,TemperatureHighF,TemperatureAvgF,TemperatureLowF,DewpointHighF,DewpointAvgF,DewpointLowF,HumidityHigh,HumidityAvg,HumidityLow,PressureMaxIn,PressureMinIn,WindSpeedMaxMPH,WindSpeedAvgMPH,GustSpeedMaxMPH,PrecipitationSumIn
2013-1-1,36.8,32.9,30.2,36.0,30.2,27.0,97,89,84,30.33,30.07,15,7,17,0.03
2013-1-2,42.9,33.2,28.9,30.0,27.0,25.0,90,79,56,30.36,30.25,10,3,13,0.12
2013-1-3,46.6,33.9,23.2,30.0,25.3,21.0,93,73,43,30.50,30.35,11,2,15,0.04
2013-1-4,45.6,37.6,28.8,33.0,28.6,24.0,89,71,54,30.54,30.35,12,2,14,0.04
2013-1-5,51.7,40.8,29.4,37.0,33.2,26.0,94,76,50,30.34,30.19,15,4,18,0.00
2013-1-6,54.7,40.2,26.1,28.0,24.5,20.0,79,57,29,30.44,30.31,12,5,18,0.00
2013-1-7,52.3,36.3,19.5,33.0,25.7,16.0,89,68,39,30.35,30.11,8,1,16,0.00
2013-1-8,50.2,44.6,36.8,47.0,39.6,31.0,96,83,66,30.13,30.00,10,2,12,0.04
2013-1-9,54.4,50.5,47.2,53.0,49.5,46.0,97,96,94,30.22,30.03,17,8,24,0.42
2013-1-10,56.1,53.1,48.5,54.0,51.4,46.0,98,94,87,30.02,29.83,13,4,19,0.07
2013-1-11,71.9,58.3,46.8,57.0,49.0,44.0,91,73,47,29.88,29.68,17,5,25,0.07
2013-1-12,61.3,43.7,30.2,57.0,33.8,22.0,87,70,42,30.01,29.73,19,10,27,0.09
2013-1-13,35.0,28.6,23.6,22.0,17.2,15.0,74,63,46,30.37,29.98,19,9,24,0.09
2013-1-14,40.2,29.9,23.1,17.0,15.7,14.0,74,57,37,30.44,30.27,16,8,21,0.00
2013-1-15,35.7,29.0,24.1,22.0,19.2,16.0,78,68,48,30.30,30.23,11,5,13,0.00
2013-1-16,48.0,33.0,18.5,24.0,18.7,14.0,85,59,32,30.29,30.17,12,3,16,0.00
2013-1-17,56.8,41.9,28.3,33.0,28.0,21.0,83,60,36,30.51,30.27,15,4,21,0.00
2013-1-18,60.8,43.1,23.5,36.0,29.1,20.0,89,62,33,30.52,30.22,12,3,18,0.00
2013-1-19,65.0,49.4,37.1,38.0,35.3,32.0,83,60,36,30.21,30.09,12,2,17,0.00
2013-1-20,67.8,47.9,30.2,46.0,36.5,27.0,93,68,37,30.21,30.06,10,1,16,0.00
2013-1-21,47.7,38.6,28.8,37.0,20.7,15.0,68,50,36,30.35,30.17,22,7,27,0.00
2013-1-22,62.3,43.0,22.8,43.0,29.7,19.0,85,62,40,30.31,30.17,9,1,13,0.00
2013-1-23,72.5,54.4,36.6,55.0,46.4,35.0,95,77,49,30.23,30.07,13,2,14,0.00
2013-1-24,58.9,48.1,38.6,51.0,43.6,31.0,98,85,61,30.16,30.05,10,2,15,0.00
2013-1-25,49.2,40.3,32.0,37.0,33.2,27.0,89,76,63,30.23,30.07,13,5,18,0.00
2013-1-26,47.3,42.2,34.5,45.0,40.3,32.0,97,93,82,30.23,30.07,10,2,15,0.00
2013-1-27,71.9,58.6,45.2,60.0,54.0,44.0,98,86,64,30.07,29.84,15,6,25,0.00
2013-1-28,77.7,69.3,63.1,65.0,62.9,60.0,94,80,60,29.93,29.72,22,8,24,0.00
2013-1-29,73.7,63.2,47.2,65.0,54.1,31.0,95,74,45,29.73,29.41,22,8,33,0.34
2013-1-30,48.0,41.8,33.1,40.0,28.0,20.0,82,60,33,30.11,29.61,24,10,35,0.34
2013-1-31,61.4,43.3,29.9,31.0,25.2,17.0,72,52,27,30.37,30.07,23,7,23,0.00
2013-2-1,54.5,37.5,22.9,32.0,22.5,12.0,76,57,37,30.43,30.14,12,4,20,0.00
2013-2-2,62.4,46.6,32.4,36.0,31.7,28.0,83,59,34,30.32,30.14,15,3,21,0.00
2013-2-3,62.4,49.3,31.0,36.0,31.5,27.0,87,55,31,30.32,29.93,11,2,14,0.00
2013-2-4,70.2,60.3,50.8,51.0,41.5,30.0,67,51,34,29.93,29.76,14,3,18,0.00
2013-2-5,59.1,52.6,45.0,56.0,49.5,33.0,98,89,52,30.01,29.87,6,1,7,0.00
2013-2-6,67.1,56.4,52.4,62.0,55.0,52.0,98,95,78,30.01,29.82,16,5,23,0.00
2013-2-7,69.5,58.0,45.8,59.0,51.6,39.0,98,81,47,30.13,29.77,23,9,30,0.00
2013-2-8,58.7,47.1,36.6,38.0,32.3,26.0,82,59,29,30.29,30.12,12,4,15,0.00
2013-2-9,52.4,45.4,40.3,52.0,41.3,34.0,97,86,73,30.13,29.68,18,6,26,0.02
2013-2-10,62.0,53.5,43.3,56.0,34.4,26.0,97,53,26,30.02,29.67,16,5,25,0.16
2013-2-11,57.3,47.7,37.9,33.0,28.9,26.0,67,50,33,30.19,30.02,16,3,19,0.16
2013-2-12,43.8,40.6,36.2,40.0,37.5,32.0,95,89,66,30.07,29.90,12,5,18,0.61
2013-2-13,56.4,42.8,34.0,39.0,33.0,28.0,93,72,34,30.13,30.00,14,4,18,0.61
2013-2-14,66.2,46.8,28.1,37.0,30.2,22.0,93,60,19,30.18,29.99,17,2,24,0.00
2013-2-15,49.7,41.0,29.8,38.0,24.8,17.0,77,54,33,30.40,30.18,23,8,26,0.00
2013-2-16,52.9,40.2,28.3,31.0,26.8,21.0,90,61,39,30.43,30.13,12,2,17,0.00
2013-2-17,72.2,54.7,33.7,39.0,31.2,26.0,80,46,18,30.12,29.78,21,6,28,0.00
2013-2-18,64.4,56.0,44.5,53.0,39.9,27.0,81,57,37,30.13,29.66,23,11,33,0.00
2013-2-19,57.3,45.4,32.9,32.0,25.8,23.0,81,49,27,30.33,30.13,10,2,16,0.00
2013-2-20,47.1,39.0,36.0,38.0,34.5,25.0,95,85,43,30.20,29.83,16,6,23,0.54
2013-2-21,53.9,40.9,30.7,43.0,35.4,25.0,95,82,59,30.00,29.61,20,9,31,0.13
2013-2-22,44.7,32.9,24.3,25.0,21.4,17.0,78,64,45,30.19,29.99,15,6,18,0.07
2013-2-23,48.1,35.0,25.1,32.0,26.0,20.0,84,71,54,30.16,29.93,8,2,12,0.07
2013-2-24,66.0,49.5,32.0,43.0,35.9,27.0,83,62,41,29.92,29.63,22,6,28,0.00
2013-2-25,51.9,45.3,45.2,41.0,29.6,-99.9,85,66,61,29.66,29.52,16,-67,22,0.04
2013-3-9,58.8,52.4,56.3,57.0,42.8,-99.9,97,87,91,29.74,0.00,4,-83,12,0.30
2013-3-10,58.8,47.2,40.5,54.0,36.8,29.0,90,68,50,29.99,29.68,20,10,30,0.30
2013-3-14,76.8,68.0,52.2,47.0,41.9,-99.9,61,41,31,30.30,30.12,14,-13,20,0.00
2013-3-15,83.1,67.4,49.1,51.0,46.6,44.0,81,50,26,30.12,29.77,19,5,26,0.00
2013-3-16,81.3,69.8,56.9,58.0,51.7,44.0,73,54,37,29.77,29.61,14,4,21,0.00
2013-3-17,64.1,51.1,45.2,55.0,42.0,38.0,83,72,59,29.79,29.64,15,6,23,0.00
2013-3-18,64.1,51.8,42.4,43.0,39.0,32.0,91,66,33,30.02,29.63,15,5,26,0.00
2013-3-19,60.7,51.6,40.5,39.0,33.7,24.0,83,54,26,30.17,29.98,13,3,19,0.00
2013-3-20,62.6,52.2,38.8,37.0,30.2,27.0,68,46,26,30.34,30.03,10,3,15,0.00
2013-3-21,71.0,54.6,46.6,54.0,39.4,30.0,71,57,45,30.02,29.50,22,9,29,0.00
2013-3-22,48.3,44.7,39.3,41.0,39.2,37.0,90,81,72,29.88,29.58,19,9,26,0.00
2013-3-23,47.0,44.7,40.5,44.0,42.4,38.0,95,91,86,29.90,29.64,18,4,29,0.01
2013-3-24,47.3,40.1,34.5,38.0,25.2,18.0,89,58,32,30.23,29.88,27,14,32,0.01
2013-3-25,47.4,37.6,24.8,23.0,17.0,13.0,78,46,27,30.42,30.22,24,8,29,0.00
2013-3-26,55.5,40.5,21.0,26.0,19.6,15.0,77,46,25,30.51,30.27,7,2,14,0.00
2013-3-27,69.6,54.9,41.0,42.0,32.7,24.0,57,44,34,30.27,30.02,19,8,29,0.00
2013-3-28,70.9,61.5,52.2,56.0,50.8,41.0,81,69,56,30.15,30.02,23,6,29,0.00
2013-3-29,73.1,65.0,55.9,60.0,57.1,54.0,93,77,59,30.10,29.91,28,6,35,0.06
2013-3-30,78.4,66.1,54.4,63.0,58.6,53.0,95,78,54,29.98,29.80,24,4,42,0.00
2013-3-31,71.1,63.5,52.9,61.0,50.9,43.0,93,66,38,29.98,29.77,26,4,31,0.24
2013-4-1,76.6,60.5,42.2,50.0,44.6,40.0,92,61,30,30.06,29.93,10,2,18,0.00
2013-4-2,56.4,45.8,41.1,46.0,42.8,40.0,95,90,68,30.07,29.94,17,9,25,0.42
2013-4-3,42.4,41.0,39.3,41.0,39.4,38.0,96,94,89,30.20,30.03,12,4,21,0.48
2013-4-4,51.0,43.1,38.9,42.0,39.3,38.0,96,87,70,30.24,30.14,11,4,15,0.19
2013-4-5,66.9,50.7,33.3,49.0,42.3,32.0,96,76,49,30.26,29.97,11,3,16,0.01
2013-4-6,76.8,65.6,55.6,57.0,51.6,48.0,79,62,43,29.97,29.77,18,6,25,0.00
2013-4-7,71.2,65.6,58.1,62.0,59.6,56.0,92,81,70,29.82,29.64,20,8,30,0.00
2013-4-8,78.2,70.6,63.9,65.0,62.7,59.0,86,76,63,29.66,29.56,25,10,30,0.00
2013-4-9,78.0,69.9,43.8,67.0,61.9,38.0,85,76,60,29.75,29.55,28,12,38,0.00
2013-4-10,43.3,38.1,34.6,37.0,34.2,32.0,92,86,75,30.02,29.72,22,11,31,0.22
2013-4-11,56.2,44.1,32.3,38.0,32.9,27.0,91,67,46,30.02,29.82,11,3,25,0.06
2013-4-12,69.3,53.1,37.5,44.0,39.9,35.0,91,64,38,30.02,29.84,11,2,16,0.02
2013-4-13,75.2,63.4,50.4,50.0,45.5,41.0,72,54,36,29.98,29.71,18,5,23,0.01
2013-4-14,82.5,69.4,57.6,65.0,55.9,47.0,81,63,46,29.72,29.45,19,7,24,0.00
2013-4-15,87.2,76.0,60.9,68.0,64.3,59.0,95,69,49,29.66,29.49,22,6,27,0.00
2013-4-16,77.3,71.1,64.3,67.0,64.1,59.0,87,78,66,29.84,29.67,12,3,17,0.00
2013-4-17,81.1,75.0,63.6,70.0,67.6,59.0,94,78,64,29.81,29.47,30,10,40,0.01
2013-4-18,76.1,48.5,38.9,69.0,39.3,31.0,90,71,50,30.16,29.50,25,13,37,0.08
2013-4-19,61.7,47.9,33.3,34.0,29.5,23.0,83,53,28,30.27,30.10,17,5,20,0.00
2013-4-20,69.0,58.3,45.1,38.0,32.5,26.0,62,40,22,30.14,29.97,26,7,31,0.00
2013-4-21,67.7,59.7,49.5,50.0,44.1,36.0,72,57,46,30.15,30.03,19,4,24,0.00
2013-4-22,76.6,64.6,49.1,59.0,52.5,44.0,84,66,50,30.07,29.75,26,8,31,0.00
2013-4-23,66.9,47.2,38.2,59.0,42.1,32.0,91,83,74,30.23,29.73,19,10,30,0.00
2013-4-24,59.3,45.6,32.3,33.0,29.6,26.0,85,57,32,30.35,30.22,17,6,22,0.00
2013-4-25,70.4,53.9,31.5,44.0,34.3,28.0,88,53,22,30.35,30.11,14,3,20,0.00
2013-4-26,73.4,64.1,56.9,65.0,54.8,44.0,86,72,52,30.16,29.89,16,6,24,0.04
2013-4-27,70.6,62.7,54.9,65.0,55.4,51.0,93,78,57,30.11,29.90,18,5,25,0.00
2013-4-28,82.7,65.1,47.8,62.0,54.1,47.0,97,72,38,30.01,29.79,15,2,16,0.00
2013-4-29,87.4,73.8,58.0,63.0,57.1,49.0,96,61,28,29.84,29.69,20,4,24,0.00
2013-4-30,83.0,72.8,59.2,62.0,58.8,55.0,88,63,40,29.76,29.67,17,6,30,0.00
2013-5-1,82.0,70.3,53.5,67.0,62.1,47.0,95,77,53,30.02,29.71,18,6,25,0.00
2013-5-2,53.0,44.2,39.1,47.0,38.5,33.0,90,81,71,30.39,30.02,27,14,34,0.09
2013-5-3,63.0,48.4,32.9,36.0,30.9,25.0,91,57,26,30.38,30.03,22,7,27,0.00
2013-5-4,66.0,52.4,37.7,40.0,32.1,18.0,82,52,17,30.05,29.91,25,8,33,0.00
2013-5-5,65.2,54.6,46.8,48.0,43.3,38.0,86,66,53,30.16,30.05,15,6,21,0.00
2013-5-6,75.2,60.6,43.1,53.0,48.5,41.0,95,68,41,30.11,29.98,10,1,12,0.00
2013-5-7,81.6,69.2,53.6,54.0,51.7,49.0,89,57,34,30.05,29.87,14,3,19,0.00
2013-5-8,85.4,72.8,61.3,64.0,55.1,44.0,83,57,24,29.92,29.77,23,6,27,0.09
2013-5-9,76.0,69.4,63.6,67.0,61.5,57.0,91,77,57,29.91,29.80,13,2,21,0.06
2013-5-10,74.9,67.1,59.9,63.0,59.0,55.0,97,77,53,30.05,29.88,17,4,18,0.00
2013-5-11,80.0,67.0,51.4,56.0,52.0,47.0,93,63,34,30.19,30.05,14,3,21,0.00
2013-5-12,77.9,64.6,47.1,47.0,39.4,32.0,83,44,20,30.24,30.07,9,2,15,0.00
2013-5-13,90.7,74.3,53.8,51.0,44.8,38.0,67,38,19,30.15,29.99,18,5,24,0.00
2013-5-14,88.4,77.1,63.2,59.0,52.9,47.0,63,44,27,30.05,29.87,16,6,22,0.00
2013-5-15,77.1,70.2,61.1,68.0,63.9,57.0,95,81,54,29.92,29.69,18,5,32,0.09
2013-5-16,69.2,65.0,61.8,66.0,63.0,60.0,96,93,88,29.79,29.70,9,2,16,0.02
2013-5-17,85.3,73.0,64.3,74.0,69.1,64.0,99,89,66,29.82,29.72,15,4,19,0.03
2013-5-18,90.6,80.2,70.7,74.0,71.8,70.0,98,77,55,29.80,29.63,22,6,36,0.02
2013-5-19,87.9,80.7,72.8,73.0,69.6,66.0,80,69,59,29.73,29.50,23,10,34,0.00
2013-5-20,87.4,75.7,63.1,74.0,67.9,60.0,90,77,63,29.70,29.53,17,7,42,0.01
2013-5-21,69.3,63.4,56.5,67.0,59.7,55.0,96,88,74,29.86,29.67,32,4,40,0.01
2013-5-22,83.2,67.5,50.3,62.0,57.1,50.0,98,73,37,29.92,29.81,8,2,13,0.02
2013-5-23,83.8,71.8,60.2,70.0,63.7,58.0,94,77,48,30.03,29.86,19,3,36,0.00
2013-5-24,81.9,72.7,64.2,73.0,68.0,62.0,93,85,72,30.10,30.00,15,5,23,0.01
2013-5-25,78.3,70.4,64.8,71.0,66.2,61.0,94,87,69,30.13,29.95,16,5,23,0.00
2013-5-26,84.0,75.9,69.6,73.0,70.1,66.0,94,82,67,30.02,29.84,17,8,23,0.00
2013-5-27,82.0,75.9,70.6,71.0,69.3,67.0,90,80,67,29.89,29.70,24,8,33,0.01
2013-5-28,79.6,76.9,71.5,70.0,68.3,67.0,86,75,68,29.78,29.61,29,9,33,0.00
2013-5-29,79.1,74.4,64.3,73.0,68.9,61.0,93,83,72,29.74,29.58,26,11,41,0.08
2013-5-30,86.5,77.8,69.8,74.0,71.0,67.0,92,80,64,29.70,29.55,21,9,28,0.00
2013-5-31,88.7,81.4,75.1,76.0,73.2,71.0,88,76,65,29.72,29.52,22,9,31,0.00
2013-6-1,81.9,75.8,66.3,73.0,64.7,54.0,91,70,38,29.95,29.57,17,5,24,0.03
2013-6-2,76.8,68.1,59.2,59.0,55.1,49.0,91,66,41,30.09,29.93,16,4,25,0.00
2013-6-3,82.8,70.6,57.3,65.0,60.1,55.0,93,71,49,29.98,29.78,12,3,17,0.00
2013-6-4,85.9,76.2,65.2,73.0,67.6,62.0,95,75,63,29.99,29.74,20,6,37,0.83
2013-6-5,83.4,75.9,66.8,72.0,69.3,65.0,94,81,66,29.94,29.75,13,4,23,0.22
2013-6-6,75.5,70.2,63.1,70.0,65.0,61.0,96,84,67,29.93,29.80,15,3,25,1.21
2013-6-7,81.1,69.3,57.8,65.0,58.4,53.0,95,71,43,29.98,29.86,10,1,14,0.00
2013-6-8,82.8,73.2,60.1,65.0,61.1,58.0,92,68,51,29.90,29.73,19,4,21,0.00
2013-6-9,86.9,75.6,64.4,70.0,65.9,62.0,95,73,51,29.91,29.77,24,2,32,0.28
2013-6-10,92.6,81.0,69.2,73.0,68.9,64.0,90,68,50,29.91,29.81,15,3,17,0.00
2013-6-11,90.5,82.2,72.9,74.0,69.4,64.0,81,66,52,29.93,29.82,14,4,21,0.00
2013-6-12,90.9,82.7,75.2,74.0,71.3,67.0,78,69,54,29.96,29.84,14,4,19,0.00
2013-6-13,94.0,84.0,73.9,77.0,72.4,69.0,86,69,49,29.97,29.82,11,2,12,0.00
2013-6-14,92.6,82.5,72.3,74.0,72.2,69.0,93,73,50,29.93,29.83,7,1,13,0.00
2013-6-15,84.8,79.7,75.1,76.0,72.9,70.0,91,80,67,29.94,29.82,14,2,17,0.00
2013-6-16,91.8,82.0,70.2,75.0,71.9,68.0,93,73,54,29.94,29.79,12,3,20,0.00
2013-6-17,86.7,76.5,66.7,72.0,69.1,65.0,95,79,59,29.93,29.78,28,3,36,0.64
2013-6-18,85.6,76.1,68.5,70.0,68.1,66.0,95,78,53,29.97,29.86,12,2,16,0.00
2013-6-19,83.5,75.6,67.3,75.0,71.1,66.0,97,86,73,29.96,29.81,12,2,17,0.02
2013-6-20,90.2,81.8,72.9,76.0,72.1,68.0,95,74,55,29.95,29.84,17,5,22,0.00
2013-6-21,90.9,83.2,75.8,76.0,70.6,68.0,79,67,50,29.95,29.86,15,5,19,0.00
2013-6-22,91.1,82.8,74.4,71.0,68.9,64.0,80,64,42,29.93,29.78,16,6,24,0.00
2013-6-23,91.5,83.4,75.6,71.0,69.2,67.0,82,63,46,29.88,29.78,18,6,27,0.00
2013-6-24,90.4,82.4,74.8,72.0,69.5,67.0,79,66,52,29.93,29.79,19,6,23,0.00
2013-6-25,92.7,84.4,76.7,74.0,70.6,66.0,80,64,52,29.86,29.71,20,7,24,0.00
2013-6-26,94.1,85.3,77.1,76.0,71.2,65.0,79,63,52,29.85,29.72,14,4,20,0.00
2013-6-27,99.2,86.3,73.0,76.0,72.6,68.0,90,66,41,29.95,29.76,13,3,28,0.00
2013-6-28,96.1,86.2,76.7,74.0,67.9,62.0,77,56,33,29.93,29.79,14,4,19,0.00
2013-6-29,91.4,81.8,72.8,69.0,65.3,60.0,85,60,36,29.89,29.77,12,2,16,0.00
2013-6-30,84.8,77.6,68.3,67.0,59.6,57.0,81,55,39,29.94,29.80,16,4,20,0.00
2013-7-1,83.5,72.8,62.8,61.0,56.4,52.0,78,58,36,30.04,29.93,16,4,20,0.00
2013-7-2,84.5,73.4,58.3,59.0,53.9,50.0,82,54,31,30.08,29.97,14,3,17,0.00
2013-7-3,87.1,74.4,58.3,61.0,56.1,52.0,87,57,31,30.04,29.90,8,2,11,0.00
2013-7-4,90.7,77.7,62.8,66.0,58.9,51.0,82,56,26,29.96,29.84,13,3,16,0.00
2013-7-5,92.5,81.3,70.3,67.0,63.4,60.0,81,56,34,29.93,29.79,14,4,21,0.03
2013-7-6,93.3,80.8,68.4,69.0,64.4,62.0,80,59,38,29.88,29.79,15,3,20,0.00
2013-7-7,93.4,83.1,70.8,70.0,66.9,64.0,80,60,40,29.93,29.86,12,4,18,0.00
2013-7-8,93.8,82.7,71.9,74.0,70.1,66.0,88,67,47,30.00,29.90,11,3,18,0.00
2013-7-9,97.8,87.0,76.1,72.0,68.7,63.0,75,56,40,30.01,29.86,14,4,24,0.00
2013-7-10,99.5,89.0,78.0,71.0,67.6,64.0,66,50,34,29.96,29.82,15,3,20,0.00
2013-7-11,101.3,87.5,74.9,71.0,68.5,65.0,82,56,31,29.89,29.76,19,3,24,0.00
2013-7-12,96.9,85.0,73.6,74.0,70.9,69.0,88,65,41,29.90,29.81,11,3,21,0.00
2013-7-13,97.2,85.7,74.6,71.0,69.6,66.0,87,61,40,29.93,29.80,12,4,17,0.00
2013-7-14,82.8,70.0,63.1,68.0,65.8,61.0,96,88,51,30.00,29.83,14,2,20,0.83
2013-7-15,73.0,67.1,62.2,69.0,65.3,61.0,97,94,84,30.08,29.95,9,3,16,0.21
2013-7-16,84.5,75.0,69.5,74.0,70.9,68.0,97,88,66,30.17,30.05,12,4,15,0.08
2013-7-17,85.4,78.1,70.9,75.0,72.1,70.0,97,83,64,30.20,30.10,12,2,15,0.05
2013-7-18,89.9,80.5,69.9,75.0,71.8,69.0,98,77,52,30.15,29.96,7,0,14,0.03
2013-7-19,92.9,81.4,71.6,74.0,71.4,69.0,96,74,46,29.99,29.85,15,1,17,0.03
2013-7-20,92.8,81.3,71.2,74.0,71.1,69.0,95,73,46,29.91,29.77,13,2,17,0.01
2013-7-21,94.0,83.5,71.9,74.0,71.6,69.0,92,69,49,29.84,29.75,10,2,15,0.00
2013-7-22,94.2,85.6,76.4,77.0,73.7,71.0,87,68,53,29.86,29.75,13,4,20,0.00
2013-7-23,95.8,86.7,79.1,78.0,74.2,71.0,79,67,51,29.87,29.71,12,3,18,0.00
2013-7-24,89.8,79.8,66.1,74.0,69.9,64.0,95,73,53,30.01,29.75,16,3,33,0.56
2013-7-25,84.5,78.5,71.6,73.0,71.9,70.0,96,81,66,30.02,29.91,8,1,11,0.00
2013-7-26,85.5,78.1,72.6,76.0,72.5,70.0,96,83,69,29.96,29.85,18,6,24,0.50
2013-7-27,85.1,76.0,69.0,71.0,69.1,67.0,96,80,57,30.00,29.88,9,2,13,0.00
2013-7-28,87.0,77.7,68.1,72.0,68.6,66.0,96,76,51,29.94,29.83,12,2,16,0.00
2013-7-29,88.2,79.9,74.4,78.0,73.4,69.0,93,80,60,29.93,29.82,13,5,21,0.00
2013-7-30,93.3,84.3,75.8,79.0,72.9,66.0,89,69,54,29.95,29.85,13,3,21,0.00
2013-7-31,92.6,83.2,74.4,78.0,75.5,73.0,96,79,59,29.99,29.89,11,1,15,0.00
2013-8-1,93.0,84.2,75.1,76.0,73.9,72.0,93,73,51,29.98,29.85,10,2,13,0.00
2013-8-2,100.3,88.7,77.0,74.0,70.9,67.0,85,59,35,29.87,29.75,14,3,20,0.00
2013-8-3,98.1,88.1,78.1,72.0,68.9,66.0,71,54,38,29.93,29.80,12,3,17,0.00
2013-8-4,97.4,85.7,73.0,74.0,69.7,67.0,87,61,41,29.98,29.84,10,2,17,0.00
2013-8-5,100.0,87.1,74.9,74.0,69.9,67.0,81,59,35,29.89,29.72,18,4,18,0.00
2013-8-6,102.2,90.7,78.5,73.0,67.7,64.0,69,48,29,29.80,29.66,13,4,18,0.00
2013-8-7,104.1,91.4,79.6,74.0,69.0,65.0,75,50,29,29.77,29.64,12,2,14,0.00
2013-8-8,97.5,86.7,77.3,76.0,71.0,67.0,82,61,39,29.81,29.69,17,3,17,0.00
2013-8-9,94.7,83.8,75.7,74.0,72.7,70.0,90,71,49,29.93,29.76,14,4,20,0.00
2013-8-10,88.1,79.8,72.5,73.0,69.8,67.0,92,73,52,30.05,29.94,12,4,16,0.00
2013-8-11,96.5,81.9,67.4,72.0,69.0,66.0,94,68,41,30.02,29.89,8,1,16,0.00
2013-8-12,97.5,85.1,75.5,73.0,71.1,69.0,88,65,39,29.96,29.82,11,3,20,0.01
2013-8-13,87.8,79.3,74.6,74.0,72.6,69.0,96,81,57,29.98,29.85,12,3,16,0.09
2013-8-14,86.8,77.5,68.9,72.0,68.9,67.0,93,76,53,30.02,29.91,14,3,17,0.00
2013-8-15,86.1,76.4,68.0,69.0,65.9,62.0,88,71,54,30.03,29.85,10,2,22,0.00
2013-8-16,85.0,73.5,64.5,68.0,65.1,62.0,95,77,49,30.04,29.88,19,2,37,0.16
2013-8-17,85.4,74.3,62.2,65.0,63.2,60.0,95,70,47,30.08,29.95,11,2,14,0.00
2013-8-18,87.2,76.3,64.7,65.0,63.3,61.0,87,66,46,30.07,29.95,11,2,14,0.00
2013-8-19,91.5,78.9,66.4,68.0,64.0,62.0,87,63,40,30.02,29.88,13,4,21,0.00
2013-8-20,94.3,80.8,66.8,66.0,62.2,59.0,86,57,32,29.98,29.88,12,2,16,0.00
2013-8-21,95.2,80.8,66.6,66.0,61.2,57.0,85,56,28,30.01,29.91,14,2,18,0.00
2013-8-22,97.0,84.8,69.8,70.0,66.2,62.0,84,56,35,30.02,29.86,10,2,17,0.00
2013-8-23,95.1,83.5,72.7,73.0,69.4,68.0,86,64,43,29.96,29.86,13,2,19,0.00
2013-8-24,96.7,84.0,72.4,72.0,68.7,64.0,88,63,37,30.02,29.91,11,3,16,0.00
2013-8-25,95.1,84.2,72.4,71.0,67.9,66.0,86,60,39,30.09,29.99,13,3,18,0.00
2013-8-26,93.5,82.2,71.1,70.0,66.8,63.0,85,62,39,30.12,29.99,14,3,18,0.00
2013-8-27,87.9,78.4,67.7,72.0,67.9,63.0,86,71,57,30.05,29.94,9,2,16,0.00
2013-8-28,95.5,82.7,70.0,71.0,67.8,66.0,88,63,38,30.03,29.92,12,2,18,0.00
2013-8-29,99.5,85.5,68.8,68.0,65.6,63.0,87,55,30,30.01,29.87,10,2,24,0.00
2013-8-30,102.3,87.3,71.1,68.0,64.8,61.0,83,51,27,29.94,29.78,9,1,14,0.00
2013-8-31,103.9,88.7,72.8,68.0,63.7,60.0,77,47,24,29.83,29.70,10,1,15,0.00
2013-9-1,102.8,87.0,71.2,74.0,66.3,62.0,80,53,26,29.81,29.71,12,2,16,0.00
2013-9-2,94.6,84.1,75.2,75.0,69.8,61.0,91,64,42,29.93,29.80,12,3,17,0.00
2013-9-3,93.4,79.4,65.1,64.0,60.4,54.0,85,56,30,29.98,29.87,11,3,17,0.00
2013-9-4,95.5,81.9,67.2,70.0,64.6,61.0,82,58,35,30.02,29.91,10,2,15,0.00
2013-9-5,96.5,83.5,71.2,70.0,64.3,61.0,77,55,31,30.06,29.94,11,2,15,0.00
2013-9-6,97.9,84.0,69.7,67.0,63.5,61.0,78,53,30,30.03,29.88,10,2,15,0.00
2013-9-7,97.1,84.5,70.9,68.0,65.1,64.0,79,54,34,29.95,29.84,20,2,23,0.00
2013-9-8,96.3,84.0,68.5,70.0,64.1,58.0,87,55,28,29.91,29.80,13,2,22,0.00
2013-9-9,93.3,83.4,69.3,69.0,64.3,59.0,82,55,32,29.93,29.83,13,3,23,0.00
2013-9-10,92.0,82.4,70.3,70.0,64.2,58.0,83,56,33,30.03,29.88,16,3,22,0.00
2013-9-11,94.6,81.3,65.7,69.0,63.2,59.0,80,56,35,30.08,29.93,12,2,19,0.00
2013-9-12,92.9,81.4,69.3,70.0,66.8,65.0,86,63,41,30.03,29.89,10,2,16,0.00
2013-9-13,92.2,80.6,72.6,71.0,69.1,66.0,89,70,44,29.94,29.81,14,2,19,0.02
2013-9-14,89.6,78.8,69.7,70.0,63.6,59.0,87,62,42,29.94,29.83,13,4,17,0.00
2013-9-15,94.2,81.6,70.8,72.0,64.2,57.0,63,56,40,29.96,29.88,10,2,17,0.00
2013-9-16,91.9,82.1,70.8,68.0,66.1,64.0,80,60,41,30.05,29.92,10,2,14,0.00
2013-9-17,93.0,80.0,71.2,70.0,66.7,61.0,83,66,36,30.01,29.89,13,2,23,0.00
2013-9-18,93.7,83.8,74.1,70.0,66.7,63.0,83,58,36,29.94,29.79,18,4,23,0.00
2013-9-19,90.5,81.7,71.6,71.0,67.2,63.0,83,63,43,29.91,29.81,13,3,22,0.00
2013-9-20,73.5,67.5,62.7,70.0,61.7,-99.9,96,87,80,29.95,29.86,14,-21,18,0.09
2013-9-21,81.6,63.8,54.2,57.0,45.5,-99.9,94,62,26,30.00,29.86,11,-40,17,0.01
2013-9-22,83.1,67.2,50.8,55.0,50.9,47.0,93,62,29,29.93,29.77,8,2,13,0.01
2013-9-23,83.5,68.8,53.9,56.0,53.3,50.0,88,61,36,29.82,29.69,13,3,21,0.01
2013-9-24,89.0,72.9,58.1,60.0,50.4,42.0,89,52,20,29.93,29.81,14,4,20,0.00
2013-9-25,92.0,73.3,52.2,56.0,50.4,47.0,86,51,24,29.88,29.71,8,2,16,0.00
2013-9-26,93.8,80.4,64.8,61.0,56.0,50.0,64,44,32,29.81,29.73,18,4,22,0.00
2013-9-27,88.0,78.5,66.4,71.0,65.3,56.0,80,65,51,29.86,29.75,17,6,25,0.00
2013-9-28,79.3,70.1,57.8,73.0,64.1,55.0,94,81,62,30.05,29.77,17,7,22,0.23
2013-9-29,78.9,64.0,51.1,56.0,51.4,46.0,93,68,33,30.07,29.90,11,2,14,0.24
2013-9-30,85.2,67.6,49.0,57.0,51.6,47.0,94,62,31,29.92,29.76,11,2,16,0.00
2013-10-1,87.6,72.5,57.4,67.0,60.5,53.0,96,69,43,29.88,29.80,17,3,19,0.00
2013-10-2,85.8,76.6,67.4,72.0,68.9,63.0,97,78,57,29.91,29.78,15,6,20,0.00
2013-10-3,89.8,80.4,72.8,73.0,69.6,67.0,90,71,49,29.83,29.70,22,7,29,0.00
2013-10-4,86.2,79.1,72.7,71.0,68.9,67.0,89,72,55,29.82,29.73,15,7,25,0.00
2013-10-5,77.9,60.0,48.4,69.0,47.5,39.0,83,65,39,30.09,29.77,21,6,29,0.01
2013-10-6,73.5,56.8,44.6,43.0,36.1,25.0,88,53,17,30.14,30.03,17,5,21,0.01
2013-10-7,78.8,59.7,41.0,45.0,37.8,25.0,88,53,15,30.16,30.05,10,1,12,0.00
2013-10-8,79.7,60.8,44.9,50.0,41.2,-99.9,87,56,27,30.10,29.95,11,-18,17,0.00
2013-10-9,82.2,67.0,53.8,55.0,52.0,50.0,87,62,35,30.03,29.92,16,3,22,0.00
2013-10-10,81.1,68.4,54.4,63.0,57.2,53.0,93,70,49,30.00,29.80,16,5,24,0.00
2013-10-11,86.1,75.1,65.1,70.0,65.3,59.0,89,73,51,29.83,29.73,18,5,23,0.00
2013-10-12,82.3,74.7,66.6,70.0,66.2,61.0,96,76,50,30.04,29.80,14,4,16,0.00
2013-10-13,74.5,68.5,62.4,68.0,64.9,60.0,94,88,78,30.17,30.05,13,4,16,0.01
2013-10-14,71.8,69.2,66.4,71.0,67.4,64.0,97,93,85,30.11,29.84,15,6,19,0.01
2013-10-15,71.5,59.5,52.7,70.0,56.8,48.0,96,91,79,30.08,29.84,16,5,26,0.01
2013-10-16,61.4,53.7,46.4,53.0,44.8,42.0,94,73,52,30.15,30.04,13,6,19,0.00
2013-10-17,70.7,53.8,39.8,53.0,45.9,39.0,96,77,49,30.11,29.95,12,2,17,0.00
2013-10-18,64.6,53.2,42.2,56.0,49.7,40.0,94,88,58,30.18,29.89,17,4,25,0.00
2013-10-19,64.7,48.3,34.9,45.0,39.1,34.0,96,75,38,30.22,30.06,15,3,18,0.00
2013-10-20,69.8,55.6,39.8,48.0,43.7,37.0,91,67,44,30.06,29.82,19,3,23,0.00
2013-10-21,61.1,53.3,43.0,52.0,46.6,39.0,92,79,56,30.14,29.87,11,2,17,0.00
2013-10-22,75.9,54.8,38.6,50.0,43.7,37.0,95,71,35,30.16,29.99,15,3,19,0.00
2013-10-23,79.3,60.6,43.2,52.0,47.3,41.0,94,66,36,30.12,29.98,9,2,12,0.00
2013-10-24,66.5,58.0,49.7,48.0,44.1,38.0,86,61,42,30.30,30.00,16,4,19,0.00
2013-10-25,64.4,52.6,43.5,45.0,40.3,36.0,77,64,49,30.41,30.23,11,4,17,0.00
2013-10-26,62.9,56.1,50.1,60.0,52.8,45.0,96,88,74,30.22,30.03,8,1,26,0.00
2013-10-27,67.1,59.1,55.1,59.0,56.3,53.0,97,90,75,30.12,29.97,6,1,11,0.00
2013-10-28,69.9,60.0,48.9,65.0,58.3,48.0,98,94,84,30.07,29.96,13,4,19,0.00
2013-10-29,76.6,71.3,67.2,70.0,67.4,65.0,93,87,79,30.00,29.89,18,7,23,0.00
2013-10-30,71.8,69.2,65.2,69.0,67.1,64.0,96,93,87,29.93,29.71,18,6,25,0.00
2013-10-31,67.7,62.9,50.9,67.0,52.6,41.0,98,72,43,29.83,29.61,28,7,30,0.01
2013-11-1,72.7,57.0,41.9,49.0,43.5,41.0,95,66,34,30.11,29.80,12,4,19,0.01
2013-11-2,64.6,52.9,41.1,42.0,36.6,31.0,87,57,30,30.32,30.11,14,4,24,0.00
2013-11-3,63.5,52.0,38.3,45.0,39.3,35.0,88,65,42,30.19,29.94,15,5,24,0.00
2013-11-4,63.1,58.1,52.9,57.0,53.1,45.0,95,83,67,30.04,29.93,15,6,23,0.00
2013-11-5,66.6,62.9,58.7,66.0,61.7,58.0,97,95,92,30.02,29.88,17,7,21,0.00
2013-11-6,66.5,47.6,35.0,65.0,40.0,33.0,96,77,47,30.39,29.91,18,8,30,0.00
2013-11-7,62.7,46.2,31.7,41.0,36.3,30.0,95,72,36,30.51,30.38,9,1,14,0.00
2013-11-8,63.9,52.4,37.5,42.0,38.0,33.0,92,62,32,30.37,30.10,16,4,22,0.00
2013-11-9,68.5,58.7,48.4,53.0,47.9,42.0,81,68,50,30.21,30.06,12,4,23,0.00
2013-11-10,64.9,57.2,48.8,55.0,50.1,47.0,92,77,69,30.33,30.21,9,2,12,0.00
2013-11-11,70.3,59.0,47.1,59.0,53.4,45.0,95,82,64,30.34,30.15,22,3,28,0.00
2013-11-12,50.2,39.5,27.2,47.0,23.7,13.0,89,57,28,30.72,30.35,25,10,30,0.00
2013-11-13,51.5,36.0,19.7,27.0,22.4,17.0,89,61,35,30.72,30.36,10,4,14,0.03
2013-11-14,52.6,44.4,28.9,40.0,29.7,24.0,83,58,45,30.36,29.98,16,5,19,0.03
2013-11-15,67.3,58.0,47.4,57.0,47.8,40.0,89,70,50,29.98,29.77,12,4,17,0.00
2013-11-16,76.4,68.0,61.3,64.0,59.6,57.0,89,75,56,29.77,29.55,21,8,31,0.02
2013-11-17,77.8,68.6,59.2,65.0,48.8,26.0,89,55,25,30.03,29.59,15,7,22,0.02
2013-11-18,68.5,58.1,49.1,37.0,29.7,23.0,50,35,22,30.20,30.03,13,3,16,0.00
2013-11-19,62.9,57.3,52.2,40.0,34.4,30.0,57,43,30,30.16,29.96,22,7,28,0.00
2013-11-20,61.3,56.4,50.5,54.0,42.4,33.0,77,60,48,29.97,29.82,17,6,22,0.00
2013-11-21,67.4,55.2,33.9,65.0,52.3,31.0,95,90,78,30.30,29.90,25,7,37,0.01
2013-11-22,33.8,31.2,29.8,31.0,28.2,26.0,93,88,82,30.54,30.31,20,7,27,0.01
2013-11-23,37.1,33.5,30.8,31.0,28.6,26.0,93,82,68,30.62,30.52,0,0,1,0.00
2013-11-24,32.5,29.7,27.8,26.0,22.3,17.0,84,74,61,30.66,30.37,0,0,0,0.00
2013-11-25,34.4,32.1,29.3,33.0,30.1,25.0,94,92,84,30.37,30.21,6,2,9,0.00
2013-11-26,48.7,39.7,33.7,33.0,29.6,22.0,93,70,41,30.41,30.21,22,9,28,0.00
2013-11-27,45.6,32.9,24.2,21.0,15.9,12.0,72,52,29,30.50,30.35,13,4,18,0.00
2013-11-28,56.1,38.0,23.1,29.0,24.0,18.0,83,60,29,30.45,30.33,10,2,16,0.00
2013-11-29,59.6,41.7,24.3,37.0,30.1,21.0,90,67,32,30.48,30.31,9,3,18,0.00
2013-11-30,64.5,53.2,43.6,51.0,46.5,37.0,92,79,60,30.31,30.09,14,4,20,0.00
2013-12-1,61.7,52.6,42.2,53.0,48.6,40.0,96,87,67,30.10,29.89,10,2,13,0.00
2013-12-2,64.3,47.4,36.8,53.0,42.7,36.0,98,86,50,29.89,29.66,7,1,9,0.01
2013-12-3,67.8,52.3,42.6,50.0,43.5,40.0,98,76,38,29.66,29.49,9,2,14,0.01
2013-12-4,54.0,46.6,33.9,43.0,36.2,25.0,92,68,53,30.00,29.51,19,7,25,0.00
2013-12-5,33.8,26.5,21.3,24.0,18.3,14.0,91,72,54,30.28,30.01,23,11,31,0.00
2013-12-6,25.8,21.6,17.5,19.0,16.1,8.0,91,80,67,30.60,30.24,21,9,22,0.00
2013-12-7,22.7,17.7,12.0,16.0,9.5,4.0,77,70,65,30.67,30.32,16,6,18,0.00
2013-12-8,35.3,26.4,21.6,26.0,22.1,16.0,93,84,68,30.31,30.05,11,3,15,0.01
2013-12-9,30.3,25.3,19.3,23.0,19.6,14.0,91,79,62,30.48,30.21,15,6,18,0.01
2013-12-10,38.8,24.5,10.9,22.0,16.1,8.0,88,72,48,30.54,30.33,9,3,17,0.00
2013-12-11,41.8,30.5,19.5,27.0,22.2,16.0,89,72,53,30.64,30.32,16,4,20,0.00
2013-12-12,44.1,32.9,19.4,32.0,25.6,17.0,90,75,58,30.64,30.28,11,3,14,0.00
2013-12-13,47.4,41.4,37.6,42.0,37.6,32.0,96,86,75,30.27,29.77,14,6,20,0.00
2013-12-14,42.4,36.9,28.0,42.0,31.8,24.0,97,82,62,30.33,29.81,24,7,30,0.00
2013-12-15,59.2,40.8,25.8,36.0,29.0,23.0,91,67,35,30.35,30.20,13,3,16,0.00
2013-12-16,64.9,45.8,29.7,37.0,32.4,25.0,86,62,34,30.21,30.12,9,1,11,0.00
2013-12-17,70.5,47.1,27.5,39.0,31.1,25.0,91,61,25,30.30,30.17,7,1,11,0.00
2013-12-18,69.8,49.7,31.9,49.0,34.3,-99.9,82,61,32,30.27,29.92,15,-17,25,0.00
2013-12-19,68.5,60.7,53.0,56.0,53.1,48.0,89,77,62,29.91,29.66,20,7,30,0.00
2013-12-20,61.8,40.0,30.1,57.0,36.9,27.0,95,88,80,29.91,29.67,22,6,24,0.00
2013-12-21,36.9,34.2,31.7,36.0,33.0,30.0,96,95,93,29.84,29.60,8,2,14,0.00
2013-12-22,34.9,30.1,23.1,33.0,25.4,21.0,93,83,70,30.43,29.85,18,8,22,0.00
2013-12-23,38.6,25.3,17.2,29.0,22.2,15.0,95,88,63,30.62,30.42,11,3,14,0.00
2013-12-24,49.4,35.2,23.1,35.0,28.6,22.0,94,78,58,30.60,30.23,13,5,22,0.00
2013-12-25,42.7,34.1,25.5,35.0,30.6,24.0,93,87,74,30.45,30.25,13,3,16,0.00
2013-12-26,52.8,34.8,21.5,37.0,27.8,20.0,95,78,44,30.47,30.34,7,1,11,0.00
2013-12-27,57.7,38.8,21.6,34.0,26.8,19.0,91,67,33,30.45,30.33,7,1,10,0.00
2013-12-28,59.4,45.6,29.3,45.0,36.6,26.0,89,72,55,30.32,29.93,13,2,19,0.00
2013-12-29,49.9,33.2,26.3,41.0,26.8,15.0,95,77,63,30.34,29.92,25,9,31,0.00
2013-12-30,40.6,27.5,17.3,18.0,14.8,11.0,77,60,40,30.44,30.30,7,2,11,0.00
2013-12-31,55.9,37.0,22.3,29.0,23.9,17.0,82,62,34,30.45,30.18,11,3,17,0.00
2014-1-1,63.7,42.6,25.1,41.0,30.4,17.0,86,65,38,30.30,29.84,26,8,31,0.00
2014-1-2,39.9,27.1,18.6,19.0,16.3,13.0,81,66,42,30.52,30.29,16,6,24,0.00